createdAt,value
2023-04-25T00:01:22.762Z,3.90
2023-04-25T00:03:45.889Z,3.90
2023-04-25T00:06:07.636Z,4.00
2023-04-25T00:08:28.718Z,3.70
2023-04-25T00:10:50.160Z,4.30
2023-04-25T00:13:12.615Z,4.53
2023-04-25T00:15:33.633Z,4.20
2023-04-25T00:17:55.038Z,3.90
2023-04-25T00:20:17.810Z,3.97
2023-04-25T00:22:39.360Z,4.13
2023-04-25T00:25:01.253Z,4.17
2023-04-25T00:27:22.547Z,4.10
2023-04-25T00:29:43.798Z,3.93
2023-04-25T00:32:05.391Z,4.60
2023-04-25T00:34:27.137Z,4.57
2023-04-25T00:36:51.768Z,4.20
2023-04-25T00:39:13.762Z,4.27
2023-04-25T00:41:35.175Z,4.37
2023-04-25T00:43:56.695Z,4.00
2023-04-25T00:46:18.085Z,4.27
2023-04-25T00:48:39.362Z,4.00
2023-04-25T00:51:00.954Z,4.50
2023-04-25T00:53:23.666Z,3.73
2023-04-25T00:55:45.949Z,4.07
2023-04-25T00:58:07.288Z,4.03
2023-04-25T01:00:28.619Z,4.00
2023-04-25T01:02:50.982Z,4.30
2023-04-25T01:05:13.067Z,4.50
2023-04-25T01:07:34.371Z,4.00
2023-04-25T01:09:57.066Z,4.30
2023-04-25T01:12:18.259Z,4.77
2023-04-25T01:14:40.071Z,4.40
2023-04-25T01:17:01.354Z,4.83
2023-04-25T01:19:22.627Z,4.70
2023-04-25T01:21:45.057Z,4.10
2023-04-25T01:24:06.360Z,3.90
2023-04-25T01:26:27.974Z,4.47
2023-04-25T01:28:49.304Z,4.60
2023-04-25T01:31:10.773Z,4.10
2023-04-25T01:33:31.892Z,4.17
2023-04-25T01:35:53.250Z,4.70
2023-04-25T01:38:16.395Z,4.50
2023-04-25T01:40:40.840Z,4.43
2023-04-25T01:43:02.210Z,4.50
2023-04-25T01:45:23.551Z,4.63
2023-04-25T01:47:47.885Z,4.47
2023-04-25T01:50:09.849Z,4.70
2023-04-25T01:52:31.094Z,4.33
2023-04-25T01:54:54.726Z,4.30
2023-04-25T01:57:16.235Z,4.50
2023-04-25T01:59:38.159Z,4.77
2023-04-25T02:01:59.653Z,4.77
2023-04-25T02:04:21.288Z,4.63
2023-04-25T02:06:42.427Z,4.70
2023-04-25T02:09:03.737Z,4.83
2023-04-25T02:11:26.422Z,4.60
2023-04-25T02:13:47.645Z,5.00
2023-04-25T02:16:09.032Z,4.63
2023-04-25T02:18:30.412Z,4.53
2023-04-25T02:20:51.641Z,4.43
2023-04-25T02:23:13.088Z,4.53
2023-04-25T02:25:34.224Z,4.37
2023-04-25T02:27:57.205Z,4.90
2023-04-25T02:30:18.409Z,4.77
2023-04-25T02:32:40.195Z,4.47
2023-04-25T02:35:04.808Z,4.23
2023-04-25T02:37:26.060Z,5.13
2023-04-25T02:39:47.588Z,4.60
2023-04-25T02:42:09.015Z,4.57
2023-04-25T02:44:31.698Z,4.93
2023-04-25T02:46:53.106Z,4.63
2023-04-25T02:49:14.192Z,4.17
2023-04-25T02:51:35.630Z,4.50
2023-04-25T02:53:56.669Z,4.87
2023-04-25T02:56:18.132Z,4.30
2023-04-25T02:58:39.395Z,4.20
2023-04-25T03:01:02.168Z,4.90
2023-04-25T03:03:23.901Z,4.57
2023-04-25T03:05:45.245Z,4.90
2023-04-25T03:08:06.672Z,4.30
2023-04-25T03:10:28.198Z,4.03
2023-04-25T03:12:49.297Z,4.07
2023-04-25T03:15:11.081Z,4.33
2023-04-25T03:17:33.910Z,3.97
2023-04-25T03:19:55.078Z,4.23
2023-04-25T03:22:16.410Z,3.63
2023-04-25T03:24:38.349Z,3.90
2023-04-25T03:26:59.594Z,3.90
2023-04-25T03:29:25.420Z,4.00
2023-04-25T03:31:46.908Z,4.10
2023-04-25T03:34:09.515Z,4.30
2023-04-25T03:36:30.748Z,3.73
2023-04-25T03:38:52.057Z,4.23
2023-04-25T03:41:13.441Z,4.63
2023-04-25T03:43:34.759Z,4.20
2023-04-25T03:45:56.177Z,4.40
2023-04-25T03:48:17.371Z,4.37
2023-04-25T03:50:40.050Z,4.30
2023-04-25T03:53:01.239Z,4.33
2023-04-25T03:55:22.376Z,4.10
2023-04-25T03:57:43.598Z,5.03
2023-04-25T04:00:05.610Z,4.63
2023-04-25T04:02:26.806Z,4.50
2023-04-25T04:04:48.200Z,4.53
2023-04-25T04:07:11.252Z,4.50
2023-04-25T04:09:32.513Z,4.97
2023-04-25T04:11:54.041Z,4.70
2023-04-25T04:14:15.402Z,4.40
2023-04-25T04:16:36.742Z,5.20
2023-04-25T04:18:58.081Z,4.50
2023-04-25T04:21:19.502Z,4.57
2023-04-25T04:23:42.251Z,4.40
2023-04-25T04:26:03.482Z,5.33
2023-04-25T04:28:24.443Z,4.73
2023-04-25T04:30:46.940Z,4.40
2023-04-25T04:33:08.455Z,4.60
2023-04-25T04:35:29.975Z,5.07
2023-04-25T04:37:51.688Z,4.70
2023-04-25T04:40:16.528Z,4.47
2023-04-25T04:42:38.299Z,4.47
2023-04-25T04:44:59.680Z,4.97
2023-04-25T04:47:21.386Z,4.50
2023-04-25T04:49:42.966Z,4.57
2023-04-25T04:52:04.410Z,4.60
2023-04-25T04:54:25.882Z,4.77
2023-04-25T04:56:48.436Z,4.77
2023-04-25T04:59:09.701Z,4.30
2023-04-25T05:01:31.159Z,3.93
2023-04-25T05:03:53.453Z,4.33
2023-04-25T05:06:15.260Z,4.37
2023-04-25T05:08:36.605Z,5.00
2023-04-25T05:10:58.200Z,4.47
2023-04-25T05:13:21.040Z,4.90
2023-04-25T05:15:42.257Z,4.33
2023-04-25T05:18:03.910Z,4.40
2023-04-25T05:20:25.006Z,4.50
2023-04-25T05:22:46.226Z,4.43
2023-04-25T05:25:08.059Z,4.90
2023-04-25T05:27:29.236Z,5.10
2023-04-25T05:29:52.660Z,5.97
2023-04-25T05:32:13.760Z,5.90
2023-04-25T05:34:34.976Z,5.00
2023-04-25T05:36:56.594Z,4.57
2023-04-25T05:39:18.717Z,5.00
2023-04-25T05:41:40.822Z,4.17
2023-04-25T05:44:02.168Z,4.23
2023-04-25T05:46:25.000Z,3.53
2023-04-25T05:48:46.917Z,3.70
2023-04-25T05:51:08.074Z,4.07
2023-04-25T05:53:29.761Z,3.47
2023-04-25T05:55:51.158Z,3.77
2023-04-25T05:58:12.526Z,3.50
2023-04-25T06:00:34.083Z,3.10
2023-04-25T06:02:57.067Z,3.67
2023-04-25T06:05:18.452Z,4.07
2023-04-25T06:07:39.492Z,3.50
2023-04-25T06:10:01.755Z,3.60
2023-04-25T06:12:22.858Z,4.13
2023-04-25T06:14:44.170Z,4.00
2023-04-25T06:17:07.594Z,4.00
2023-04-25T06:19:30.068Z,3.60
2023-04-25T06:21:51.512Z,4.17
2023-04-25T06:24:12.824Z,4.20
2023-04-25T06:26:34.198Z,4.00
2023-04-25T06:28:55.513Z,3.37
2023-04-25T06:31:17.052Z,3.60
2023-04-25T06:33:38.455Z,3.60
2023-04-25T06:36:01.059Z,3.90
2023-04-25T06:38:22.072Z,3.90
2023-04-25T06:40:43.306Z,3.53
2023-04-25T06:43:04.454Z,3.60
2023-04-25T06:45:25.714Z,3.70
2023-04-25T06:47:46.958Z,4.00
2023-04-25T06:50:08.399Z,3.60
2023-04-25T06:52:31.255Z,3.90
2023-04-25T06:54:52.403Z,3.67
2023-04-25T06:57:13.711Z,3.80
2023-04-25T06:59:35.088Z,3.80
2023-04-25T07:01:56.427Z,3.63
2023-04-25T07:04:17.965Z,4.20
2023-04-25T07:06:43.324Z,4.00
2023-04-25T07:09:06.371Z,5.70
2023-04-25T07:11:27.510Z,4.53
2023-04-25T07:13:48.680Z,6.13
2023-04-25T07:16:09.851Z,7.37
2023-04-25T07:18:31.072Z,5.07
2023-04-25T07:20:52.365Z,4.30
2023-04-25T07:23:13.626Z,5.10
2023-04-25T07:25:36.222Z,5.00
2023-04-25T07:27:57.474Z,3.97
2023-04-25T07:30:19.195Z,4.47
2023-04-25T07:32:40.633Z,4.57
2023-04-25T07:35:02.694Z,3.90
2023-04-25T07:37:23.810Z,3.93
2023-04-25T07:39:46.988Z,4.23
2023-04-25T07:42:09.525Z,3.90
2023-04-25T07:44:31.449Z,3.70
2023-04-25T07:46:52.641Z,4.07
2023-04-25T07:49:13.753Z,4.10
2023-04-25T07:51:34.913Z,4.37
2023-04-25T07:53:56.133Z,4.20
2023-04-25T07:56:17.322Z,4.10
2023-04-25T07:58:40.191Z,4.00
2023-04-25T08:01:01.542Z,4.17
2023-04-25T08:03:23.500Z,4.67
2023-04-25T08:05:45.425Z,5.30
2023-04-25T08:08:07.627Z,4.40
2023-04-25T08:10:28.878Z,4.87
2023-04-25T08:12:50.014Z,5.63
2023-04-25T08:15:14.744Z,5.47
2023-04-25T08:17:35.750Z,4.33
2023-04-25T08:19:57.960Z,4.77
2023-04-25T08:22:19.142Z,4.33
2023-04-25T08:24:40.508Z,4.40
2023-04-25T08:27:01.790Z,4.80
2023-04-25T08:29:24.983Z,5.00
2023-04-25T08:31:47.796Z,5.03
2023-04-25T08:34:09.105Z,5.50
2023-04-25T08:36:39.085Z,6.37
2023-04-25T08:39:01.361Z,5.70
2023-04-25T08:41:23.221Z,6.07
2023-04-25T08:43:46.750Z,6.73
2023-04-25T08:46:08.130Z,6.27
2023-04-25T08:48:30.664Z,6.47
2023-04-25T08:50:52.757Z,6.07
2023-04-25T08:53:17.490Z,6.30
2023-04-25T08:55:39.610Z,6.77
2023-04-25T08:58:01.918Z,6.27
2023-04-25T09:00:24.266Z,5.53
2023-04-25T09:02:45.554Z,5.83
2023-04-25T09:05:10.675Z,6.17
2023-04-25T09:07:31.999Z,6.83
2023-04-25T09:09:53.446Z,6.43
2023-04-25T09:12:14.956Z,7.00
2023-04-25T09:14:35.935Z,7.17
2023-04-25T09:17:01.251Z,7.43
2023-04-25T09:19:37.142Z,6.50
2023-04-25T09:22:03.574Z,6.20
2023-04-25T09:24:32.440Z,6.20
2023-04-25T09:26:53.674Z,6.27
2023-04-25T09:29:14.859Z,6.83
2023-04-25T09:31:36.068Z,6.80
2023-04-25T09:34:01.222Z,7.97
2023-04-25T09:36:28.452Z,8.90
2023-04-25T09:38:50.759Z,7.50
2023-04-25T09:41:12.465Z,7.00
2023-04-25T09:43:33.465Z,8.57
2023-04-25T09:46:00.049Z,7.67
2023-04-25T09:48:22.015Z,8.20
2023-04-25T09:50:43.349Z,8.20
2023-04-25T09:53:06.483Z,7.97
2023-04-25T09:55:28.843Z,7.30
2023-04-25T09:57:50.276Z,7.63
2023-04-25T10:00:13.900Z,7.50
2023-04-25T10:02:36.027Z,8.13
2023-04-25T10:04:57.960Z,8.67
2023-04-25T10:07:19.857Z,7.50
2023-04-25T10:09:42.120Z,7.53
2023-04-25T10:12:05.238Z,7.97
2023-04-25T10:14:26.554Z,8.13
2023-04-25T10:16:49.109Z,8.60
2023-04-25T10:19:11.105Z,7.33
2023-04-25T10:21:33.632Z,7.53
2023-04-25T10:23:55.110Z,7.83
2023-04-25T10:26:16.251Z,7.53
2023-04-25T10:28:52.334Z,9.00
2023-04-25T10:31:18.432Z,8.50
2023-04-25T10:33:40.673Z,8.30
2023-04-25T10:36:11.014Z,7.90
2023-04-25T10:38:32.478Z,7.70
2023-04-25T10:41:04.849Z,7.37
2023-04-25T10:43:39.255Z,7.27
2023-04-25T10:46:01.492Z,7.43
2023-04-25T10:48:28.455Z,7.43
2023-04-25T10:50:49.849Z,7.50
2023-04-25T10:53:16.653Z,6.80
2023-04-25T10:55:51.793Z,6.27
2023-04-25T10:58:13.054Z,5.70
2023-04-25T11:00:48.212Z,5.30
2023-04-25T11:03:19.031Z,4.83
2023-04-25T11:05:55.174Z,4.83
2023-04-25T11:08:26.180Z,3.80
2023-04-25T11:10:50.227Z,4.00
2023-04-25T11:13:12.152Z,3.10
2023-04-25T11:15:33.715Z,3.47
2023-04-25T11:17:54.888Z,3.27
2023-04-25T11:20:16.630Z,2.47
2023-04-25T11:22:39.386Z,2.90
2023-04-25T11:25:00.770Z,2.70
2023-04-25T11:27:22.873Z,2.03
2023-04-25T11:29:44.064Z,2.33
2023-04-25T11:32:05.567Z,2.10
2023-04-25T11:34:27.044Z,2.40
2023-04-25T11:36:48.290Z,2.37
2023-04-25T11:39:11.170Z,2.50
2023-04-25T11:41:32.960Z,2.67
2023-04-25T11:43:55.619Z,3.20
2023-04-25T11:46:17.662Z,3.63
2023-04-25T11:48:39.509Z,3.50
2023-04-25T11:51:02.647Z,2.83
2023-04-25T11:53:26.366Z,2.77
2023-04-25T11:55:49.075Z,3.03
2023-04-25T11:58:10.405Z,2.80
2023-04-25T12:00:31.457Z,2.73
2023-04-25T12:02:53.805Z,2.60
2023-04-25T12:05:30.452Z,2.57
2023-04-25T12:07:53.572Z,5.00
2023-04-25T12:10:16.083Z,3.17
2023-04-25T12:12:39.710Z,2.40
2023-04-25T12:15:10.466Z,3.00
2023-04-25T12:17:32.099Z,2.40
2023-04-25T12:19:53.485Z,1.90
2023-04-25T12:22:21.904Z,3.80
2023-04-25T12:24:46.720Z,4.20
2023-04-25T12:27:09.412Z,1.10
2023-04-25T12:29:41.833Z,1.50
2023-04-25T12:32:10.004Z,1.77
2023-04-25T12:34:32.964Z,1.30
2023-04-25T12:36:54.580Z,1.57
2023-04-25T12:39:19.172Z,1.60
2023-04-25T12:41:40.126Z,1.80
2023-04-25T12:44:01.531Z,2.00
2023-04-25T12:46:24.921Z,2.13
2023-04-25T12:48:45.930Z,2.07
2023-04-25T12:51:07.465Z,1.90
2023-04-25T12:53:28.736Z,2.27
2023-04-25T12:55:50.558Z,2.07
2023-04-25T12:58:11.868Z,2.57
2023-04-25T13:00:33.904Z,2.10
2023-04-25T13:02:56.771Z,2.17
2023-04-25T13:05:17.794Z,2.50
2023-04-25T13:07:38.996Z,2.60
2023-04-25T13:10:00.496Z,3.10
2023-04-25T13:12:21.709Z,3.43
2023-04-25T13:14:43.039Z,3.70
2023-04-25T13:17:05.192Z,3.10
2023-04-25T13:19:28.994Z,3.90
2023-04-25T13:21:50.963Z,4.40
2023-04-25T13:24:12.006Z,3.73
2023-04-25T13:26:33.421Z,4.50
2023-04-25T13:28:54.790Z,4.97
2023-04-25T13:31:15.932Z,4.60
2023-04-25T13:33:37.231Z,4.63
2023-04-25T13:35:59.915Z,4.70
2023-04-25T13:38:21.093Z,4.10
2023-04-25T13:40:42.386Z,4.17
2023-04-25T13:43:03.817Z,4.33
2023-04-25T13:45:25.281Z,4.57
2023-04-25T13:47:46.624Z,4.57
2023-04-25T13:50:08.861Z,4.93
2023-04-25T13:52:31.264Z,3.97
2023-04-25T13:54:52.589Z,5.20
2023-04-25T13:57:13.664Z,4.60
2023-04-25T13:59:35.062Z,4.43
2023-04-25T14:01:56.479Z,4.37
2023-04-25T14:04:17.839Z,4.70
2023-04-25T14:06:39.116Z,4.40
2023-04-25T14:09:02.529Z,5.00
2023-04-25T14:11:23.790Z,4.43
2023-04-25T14:13:45.247Z,5.00
2023-04-25T14:16:06.824Z,5.60
2023-04-25T14:18:27.828Z,5.93
2023-04-25T14:20:49.168Z,4.70
2023-04-25T14:23:10.398Z,5.30
2023-04-25T14:25:33.102Z,5.23
2023-04-25T14:27:54.334Z,5.73
2023-04-25T14:30:15.675Z,5.37
2023-04-25T14:32:37.234Z,5.63
2023-04-25T14:34:58.501Z,5.40
2023-04-25T14:37:20.580Z,5.40
2023-04-25T14:39:42.075Z,5.90
2023-04-25T14:42:04.918Z,5.70
2023-04-25T14:44:26.271Z,6.20
2023-04-25T14:46:47.488Z,6.40
2023-04-25T14:49:09.047Z,13.00
2023-04-25T14:51:30.417Z,6.40
2023-04-25T14:53:52.393Z,5.63
2023-04-25T14:56:13.642Z,5.63
2023-04-25T14:58:36.191Z,5.80
2023-04-25T15:00:57.484Z,6.10
2023-04-25T15:03:19.292Z,5.57
2023-04-25T15:05:41.067Z,5.73
2023-04-25T15:08:02.427Z,5.63
2023-04-25T15:10:24.242Z,6.33
2023-04-25T15:12:47.724Z,6.43
2023-04-25T15:15:14.217Z,6.47
2023-04-25T15:17:39.208Z,5.97
2023-04-25T15:20:00.751Z,5.63
2023-04-25T15:22:21.997Z,5.83
2023-04-25T15:24:43.191Z,5.23
2023-04-25T15:27:05.362Z,5.60
2023-04-25T15:29:27.174Z,5.87
2023-04-25T15:31:49.460Z,5.70
2023-04-25T15:34:10.635Z,5.63
2023-04-25T15:36:32.380Z,5.77
2023-04-25T15:38:53.715Z,5.43
2023-04-25T15:41:14.937Z,6.37
2023-04-25T15:43:38.316Z,5.80
2023-04-25T15:45:59.531Z,6.13
2023-04-25T15:48:22.125Z,6.63
2023-04-25T15:50:43.400Z,6.23
2023-04-25T15:53:06.579Z,6.30
2023-04-25T15:55:28.502Z,6.17
2023-04-25T15:57:51.161Z,6.17
2023-04-25T16:00:13.300Z,6.40
2023-04-25T16:02:35.305Z,6.50
2023-04-25T16:04:58.304Z,6.77
2023-04-25T16:07:19.448Z,6.40
2023-04-25T16:09:41.053Z,7.70
2023-04-25T16:12:02.474Z,6.97
2023-04-25T16:14:23.623Z,7.40
2023-04-25T16:16:45.082Z,8.00
2023-04-25T16:19:06.059Z,8.47
2023-04-25T16:21:28.827Z,7.50
2023-04-25T16:23:49.989Z,8.73
2023-04-25T16:26:11.305Z,8.33
2023-04-25T16:28:32.474Z,8.70
2023-04-25T16:30:53.824Z,9.33
2023-04-25T16:33:15.313Z,8.60
2023-04-25T16:35:36.632Z,8.13
2023-04-25T16:37:59.232Z,7.87
2023-04-25T16:40:20.949Z,8.70
2023-04-25T16:42:42.174Z,9.20
2023-04-25T16:45:03.641Z,8.60
2023-04-25T16:47:25.289Z,13.97
2023-04-25T16:49:46.655Z,19.07
2023-04-25T16:52:08.026Z,18.90
2023-04-25T16:54:30.566Z,17.30
2023-04-25T16:56:52.353Z,12.73
2023-04-25T16:59:13.670Z,12.23
2023-04-25T17:01:34.912Z,17.13
2023-04-25T17:03:56.505Z,10.73
2023-04-25T17:06:18.365Z,7.87
2023-04-25T17:08:39.519Z,7.17
2023-04-25T17:11:02.873Z,8.20
2023-04-25T17:13:30.759Z,7.57
2023-04-25T17:15:52.865Z,7.13
2023-04-25T17:18:13.924Z,7.50
2023-04-25T17:20:35.270Z,7.60
2023-04-25T17:22:57.152Z,7.37
2023-04-25T17:25:18.408Z,7.80
2023-04-25T17:27:41.375Z,7.43
2023-04-25T17:30:03.910Z,8.30
2023-04-25T17:32:24.995Z,8.47
2023-04-25T17:34:48.083Z,8.77
2023-04-25T17:37:15.063Z,8.80
2023-04-25T17:39:36.014Z,8.17
2023-04-25T17:41:58.497Z,8.80
2023-04-25T17:44:22.637Z,8.07
2023-04-25T17:46:43.792Z,8.17
2023-04-25T17:49:05.130Z,8.50
2023-04-25T17:51:26.474Z,9.70
2023-04-25T17:53:47.872Z,10.67
2023-04-25T17:56:25.424Z,8.90
2023-04-25T17:58:47.827Z,8.90
2023-04-25T18:01:10.198Z,8.70
2023-04-25T18:03:31.843Z,9.47
2023-04-25T18:05:53.156Z,9.07
2023-04-25T18:08:14.510Z,9.10
2023-04-25T18:10:35.823Z,10.83
2023-04-25T18:12:57.111Z,10.33
2023-04-25T18:15:19.089Z,9.30
2023-04-25T18:17:41.688Z,9.23
2023-04-25T18:20:05.374Z,9.60
2023-04-25T18:22:26.402Z,8.83
2023-04-25T18:24:47.880Z,10.77
2023-04-25T18:27:09.199Z,9.90
2023-04-25T18:29:33.450Z,7.90
2023-04-25T18:31:55.245Z,6.90
2023-04-25T18:34:20.502Z,5.53
2023-04-25T18:36:41.771Z,6.17
2023-04-25T18:39:15.518Z,6.10
2023-04-25T18:41:55.085Z,5.60
2023-04-25T18:44:21.210Z,6.47
2023-04-25T18:46:43.651Z,6.23
2023-04-25T18:49:04.847Z,6.10
2023-04-25T18:51:29.235Z,6.07
2023-04-25T18:53:50.765Z,6.73
2023-04-25T18:56:12.626Z,7.07
2023-04-25T18:58:33.629Z,7.50
2023-04-25T19:00:55.437Z,7.77
2023-04-25T19:03:17.609Z,8.13
2023-04-25T19:05:39.356Z,8.43
2023-04-25T19:08:02.450Z,7.60
2023-04-25T19:10:23.540Z,8.40
2023-04-25T19:12:44.751Z,7.70
2023-04-25T19:15:06.830Z,8.07
2023-04-25T19:17:30.129Z,8.10
2023-04-25T19:19:52.111Z,8.27
2023-04-25T19:22:13.476Z,8.00
2023-04-25T19:24:36.052Z,9.13
2023-04-25T19:26:57.352Z,9.37
2023-04-25T19:29:18.700Z,8.33
2023-04-25T19:31:40.463Z,8.33
2023-04-25T19:34:01.765Z,8.10
2023-04-25T19:36:25.109Z,8.10
2023-04-25T19:38:46.917Z,7.53
2023-04-25T19:41:09.642Z,8.17
2023-04-25T19:43:31.804Z,8.03
2023-04-25T19:45:52.896Z,8.73
2023-04-25T19:48:14.419Z,7.87
2023-04-25T19:50:35.751Z,7.97
2023-04-25T19:52:57.191Z,8.00
2023-04-25T19:55:18.207Z,7.77
2023-04-25T19:57:40.986Z,7.93
2023-04-25T20:00:04.283Z,8.80
2023-04-25T20:02:25.645Z,7.30
2023-04-25T20:04:46.783Z,7.30
2023-04-25T20:07:08.222Z,8.27
2023-04-25T20:09:29.255Z,8.67
2023-04-25T20:11:50.395Z,8.57
2023-04-25T20:14:13.037Z,8.33
2023-04-25T20:16:34.080Z,8.67
2023-04-25T20:18:55.505Z,8.53
2023-04-25T20:21:17.569Z,8.80
2023-04-25T20:23:39.005Z,7.93
2023-04-25T20:26:00.371Z,8.40
2023-04-25T20:28:23.116Z,8.17
2023-04-25T20:30:46.136Z,9.00
2023-04-25T20:33:07.553Z,8.63
2023-04-25T20:35:29.028Z,9.20
2023-04-25T20:37:50.752Z,8.50
2023-04-25T20:40:11.890Z,9.07
2023-04-25T20:42:32.963Z,8.90
2023-04-25T20:44:54.535Z,8.97
2023-04-25T20:47:18.377Z,8.80
2023-04-25T20:49:39.339Z,9.47
2023-04-25T20:52:00.882Z,8.83
2023-04-25T20:54:22.144Z,9.00
2023-04-25T20:56:43.161Z,8.83
2023-04-25T20:59:04.608Z,9.07
2023-04-25T21:01:25.850Z,9.10
2023-04-25T21:03:50.108Z,10.57
2023-04-25T21:06:11.467Z,10.03
2023-04-25T21:08:32.925Z,10.10
2023-04-25T21:10:54.593Z,9.80
2023-04-25T21:13:15.738Z,10.63
2023-04-25T21:15:36.976Z,11.00
2023-04-25T21:17:58.923Z,10.50
2023-04-25T21:20:22.388Z,10.83
2023-04-25T21:22:49.357Z,11.80
2023-04-25T21:25:12.195Z,11.70
2023-04-25T21:27:33.650Z,13.47
2023-04-25T21:29:55.059Z,14.47
2023-04-25T21:32:20.797Z,25.07
2023-04-25T21:34:42.991Z,13.90
2023-04-25T21:37:05.834Z,14.27
2023-04-25T21:39:27.349Z,12.33
2023-04-25T21:41:48.536Z,12.87
2023-04-25T21:44:12.408Z,14.03
2023-04-25T21:46:33.603Z,13.10
2023-04-25T21:48:55.251Z,13.63
2023-04-25T21:51:17.694Z,14.10
2023-04-25T21:53:40.163Z,12.40
2023-04-25T21:56:01.451Z,12.67
2023-04-25T21:58:22.621Z,12.13
2023-04-25T22:00:44.357Z,11.87
2023-04-25T22:03:05.683Z,11.57
2023-04-25T22:05:27.640Z,11.33
2023-04-25T22:07:48.705Z,11.50
2023-04-25T22:10:12.157Z,12.07
2023-04-25T22:12:33.257Z,11.23
2023-04-25T22:14:54.470Z,11.77
2023-04-25T22:17:15.990Z,11.57
2023-04-25T22:19:37.150Z,11.30
2023-04-25T22:21:58.583Z,11.47
2023-04-25T22:24:21.419Z,11.33
2023-04-25T22:26:47.464Z,11.00
2023-04-25T22:29:08.725Z,10.93
2023-04-25T22:31:29.920Z,11.53
2023-04-25T22:33:51.423Z,11.20
2023-04-25T22:36:13.647Z,11.97
2023-04-25T22:38:35.252Z,11.07
2023-04-25T22:40:56.764Z,11.13
2023-04-25T22:43:19.223Z,11.87
2023-04-25T22:45:40.768Z,12.07
2023-04-25T22:48:02.254Z,11.00
2023-04-25T22:50:23.657Z,10.53
2023-04-25T22:52:44.776Z,9.77
2023-04-25T22:55:06.613Z,10.20
2023-04-25T22:57:27.984Z,10.97
2023-04-25T22:59:54.653Z,10.90
2023-04-25T23:02:16.054Z,10.33
2023-04-25T23:04:37.790Z,11.03
2023-04-25T23:07:00.288Z,12.07
2023-04-25T23:09:21.872Z,11.17
2023-04-25T23:11:43.398Z,12.20
2023-04-25T23:14:05.424Z,11.60
2023-04-25T23:16:28.237Z,11.20
2023-04-25T23:18:50.076Z,10.50
2023-04-25T23:21:12.228Z,10.43
2023-04-25T23:23:33.334Z,10.70
2023-04-25T23:25:54.664Z,11.07
2023-04-25T23:28:16.070Z,10.33
2023-04-25T23:30:37.608Z,11.13
2023-04-25T23:33:00.698Z,10.43
2023-04-25T23:35:21.836Z,9.50
2023-04-25T23:37:43.262Z,11.10
2023-04-25T23:40:08.732Z,10.60
2023-04-25T23:42:29.896Z,10.60
2023-04-25T23:44:51.262Z,10.53
2023-04-25T23:47:14.067Z,10.53
2023-04-25T23:49:36.649Z,9.87
2023-04-25T23:51:58.033Z,10.60
2023-04-25T23:54:19.598Z,10.97
2023-04-25T23:56:40.773Z,10.17
2023-04-25T23:59:02.149Z,11.07
